sensor_id;sensor_type;location;lat;lon;timestamp;temperature;humidity
49503;DHT22;35409;48.776;9.204;2023-01-15T03:31:55;10.80;99.90
49503;DHT22;35409;48.776;9.204;2023-01-15T03:34:23;10.70;99.90
49503;DHT22;35409;48.776;9.204;2023-01-15T03:36:49;10.70;99.90
49503;DHT22;35409;48.776;9.204;2023-01-15T03:39:15;10.70;99.90
49503;DHT22;35409;48.776;9.204;2023-01-15T03:41:46;10.70;99.90
49503;DHT22;35409;48.776;9.204;2023-01-15T03:44:25;10.90;99.90
49503;DHT22;35409;48.776;9.204;2023-01-15T03:52:15;11.20;99.90
49503;DHT22;35409;48.776;9.204;2023-01-15T03:59:53;11.40;99.90
49503;DHT22;35409;48.776;9.204;2023-01-15T04:02:21;11.60;99.90
49503;DHT22;35409;48.776;9.204;2023-01-15T04:04:48;11.70;99.90
49503;DHT22;35409;48.776;9.204;2023-01-15T04:07:15;11.70;99.90
49503;DHT22;35409;48.776;9.204;2023-01-15T04:09:41;11.80;99.90
49503;DHT22;35409;48.776;9.204;2023-01-15T04:12:06;11.90;99.90
49503;DHT22;35409;48.776;9.204;2023-01-15T04:14:33;11.90;99.90
49503;DHT22;35409;48.776;9.204;2023-01-15T04:16:58;11.90;99.90
49503;DHT22;35409;48.776;9.204;2023-01-15T04:19:24;12.00;99.90
49503;DHT22;35409;48.776;9.204;2023-01-15T04:21:50;12.00;99.90
49503;DHT22;35409;48.776;9.204;2023-01-15T04:24:15;12.10;99.90
49503;DHT22;35409;48.776;9.204;2023-01-15T04:26:41;12.00;99.90
49503;DHT22;35409;48.776;9.204;2023-01-15T04:29:06;12.00;99.90
49503;DHT22;35409;48.776;9.204;2023-01-15T04:31:32;11.90;99.90
49503;DHT22;35409;48.776;9.204;2023-01-15T04:34:00;11.90;99.90
49503;DHT22;35409;48.776;9.204;2023-01-15T04:36:25;11.80;99.90
49503;DHT22;35409;48.776;9.204;2023-01-15T04:38:51;11.80;99.90
49503;DHT22;35409;48.776;9.204;2023-01-15T04:41:19;11.90;99.90
49503;DHT22;35409;48.776;9.204;2023-01-15T04:44:03;11.90;99.90
49503;DHT22;35409;48.776;9.204;2023-01-15T04:46:37;11.80;99.90
49503;DHT22;35409;48.776;9.204;2023-01-15T04:49:04;11.80;99.90
49503;DHT22;35409;48.776;9.204;2023-01-15T04:51:30;11.90;99.90
49503;DHT22;35409;48.776;9.204;2023-01-15T04:53:56;11.80;99.90
49503;DHT22;35409;48.776;9.204;2023-01-15T04:56:22;11.80;99.90
49503;DHT22;35409;48.776;9.204;2023-01-15T04:58:47;11.80;99.90
49503;DHT22;35409;48.776;9.204;2023-01-15T05:01:15;11.80;99.90
49503;DHT22;35409;48.776;9.204;2023-01-15T05:03:41;11.80;99.90
49503;DHT22;35409;48.776;9.204;2023-01-15T05:06:08;11.70;99.90
49503;DHT22;35409;48.776;9.204;2023-01-15T05:08:33;11.70;99.90
49503;DHT22;35409;48.776;9.204;2023-01-15T05:11:04;11.70;99.90
49503;DHT22;35409;48.776;9.204;2023-01-15T05:13:30;11.80;99.90
49503;DHT22;35409;48.776;9.204;2023-01-15T05:16:13;11.70;99.90
49503;DHT22;35409;48.776;9.204;2023-01-15T05:18:41;11.80;99.90
49503;DHT22;35409;48.776;9.204;2023-01-15T05:21:19;11.80;99.90
49503;DHT22;35409;48.776;9.204;2023-01-15T05:23:46;11.70;99.90
49503;DHT22;35409;48.776;9.204;2023-01-15T05:26:12;11.80;99.90
49503;DHT22;35409;48.776;9.204;2023-01-15T05:28:38;11.80;99.90
49503;DHT22;35409;48.776;9.204;2023-01-15T05:31:06;11.50;99.90
49503;DHT22;35409;48.776;9.204;2023-01-15T05:33:32;10.80;99.90
49503;DHT22;35409;48.776;9.204;2023-01-15T05:36:03;10.20;99.90
49503;DHT22;35409;48.776;9.204;2023-01-15T05:38:29;9.60;99.90
49503;DHT22;35409;48.776;9.204;2023-01-15T05:40:54;9.20;99.90
49503;DHT22;35409;48.776;9.204;2023-01-15T05:43:20;8.90;99.90
49503;DHT22;35409;48.776;9.204;2023-01-15T05:45:46;8.70;99.90
49503;DHT22;35409;48.776;9.204;2023-01-15T05:48:11;8.50;99.90
49503;DHT22;35409;48.776;9.204;2023-01-15T05:50:37;8.40;99.90
49503;DHT22;35409;48.776;9.204;2023-01-15T05:53:02;8.30;99.90
49503;DHT22;35409;48.776;9.204;2023-01-15T05:55:28;8.10;99.90
49503;DHT22;35409;48.776;9.204;2023-01-15T05:57:53;8.00;99.90
49503;DHT22;35409;48.776;9.204;2023-01-15T06:00:19;7.90;99.90
49503;DHT22;35409;48.776;9.204;2023-01-15T06:02:48;7.80;99.90
49503;DHT22;35409;48.776;9.204;2023-01-15T06:05:15;7.70;99.90
49503;DHT22;35409;48.776;9.204;2023-01-15T06:07:46;7.60;99.90
49503;DHT22;35409;48.776;9.204;2023-01-15T06:10:12;7.50;99.90
49503;DHT22;35409;48.776;9.204;2023-01-15T06:12:38;7.30;99.90
49503;DHT22;35409;48.776;9.204;2023-01-15T06:15:03;7.30;99.90
49503;DHT22;35409;48.776;9.204;2023-01-15T06:17:29;7.30;99.90
49503;DHT22;35409;48.776;9.204;2023-01-15T06:19:55;7.20;99.90
49503;DHT22;35409;48.776;9.204;2023-01-15T06:22:20;7.20;99.90
49503;DHT22;35409;48.776;9.204;2023-01-15T06:24:46;7.30;99.90
49503;DHT22;35409;48.776;9.204;2023-01-15T06:27:11;7.20;99.90
49503;DHT22;35409;48.776;9.204;2023-01-15T06:29:37;7.10;99.90
49503;DHT22;35409;48.776;9.204;2023-01-15T06:32:03;7.20;99.90
49503;DHT22;35409;48.776;9.204;2023-01-15T06:34:28;7.10;99.90
49503;DHT22;35409;48.776;9.204;2023-01-15T06:36:54;7.20;99.90
49503;DHT22;35409;48.776;9.204;2023-01-15T06:39:19;7.10;99.90
49503;DHT22;35409;48.776;9.204;2023-01-15T06:41:45;7.10;99.90
49503;DHT22;35409;48.776;9.204;2023-01-15T06:44:29;7.00;99.90
49503;DHT22;35409;48.776;9.204;2023-01-15T06:47:15;6.90;99.90
49503;DHT22;35409;48.776;9.204;2023-01-15T06:49:57;6.80;99.90
49503;DHT22;35409;48.776;9.204;2023-01-15T06:52:24;6.70;99.90
49503;DHT22;35409;48.776;9.204;2023-01-15T06:54:50;6.60;99.90
49503;DHT22;35409;48.776;9.204;2023-01-15T06:57:16;6.60;99.90
49503;DHT22;35409;48.776;9.204;2023-01-15T06:59:43;6.50;99.90
49503;DHT22;35409;48.776;9.204;2023-01-15T07:02:10;6.50;99.90
49503;DHT22;35409;48.776;9.204;2023-01-15T07:04:36;6.50;99.90
49503;DHT22;35409;48.776;9.204;2023-01-15T07:07:03;6.40;99.90
49503;DHT22;35409;48.776;9.204;2023-01-15T07:09:28;6.30;99.90
49503;DHT22;35409;48.776;9.204;2023-01-15T07:11:54;6.30;99.90
49503;DHT22;35409;48.776;9.204;2023-01-15T07:14:22;6.20;99.90
49503;DHT22;35409;48.776;9.204;2023-01-15T07:16:49;6.20;99.90
49503;DHT22;35409;48.776;9.204;2023-01-15T07:19:15;6.10;99.90
49503;DHT22;35409;48.776;9.204;2023-01-15T07:21:41;6.10;99.90
49503;DHT22;35409;48.776;9.204;2023-01-15T07:24:07;6.00;99.90
49503;DHT22;35409;48.776;9.204;2023-01-15T07:26:33;6.00;99.90
49503;DHT22;35409;48.776;9.204;2023-01-15T07:28:58;5.80;99.90
49503;DHT22;35409;48.776;9.204;2023-01-15T07:31:24;5.80;99.90
49503;DHT22;35409;48.776;9.204;2023-01-15T07:33:50;5.70;99.90
49503;DHT22;35409;48.776;9.204;2023-01-15T07:36:15;5.70;99.90
49503;DHT22;35409;48.776;9.204;2023-01-15T07:38:41;5.50;99.90
49503;DHT22;35409;48.776;9.204;2023-01-15T07:41:06;5.40;99.90
49503;DHT22;35409;48.776;9.204;2023-01-15T07:43:50;5.50;99.90
49503;DHT22;35409;48.776;9.204;2023-01-15T07:46:35;5.40;99.90
49503;DHT22;35409;48.776;9.204;2023-01-15T07:49:19;5.40;99.90
49503;DHT22;35409;48.776;9.204;2023-01-15T07:52:03;5.40;99.90
49503;DHT22;35409;48.776;9.204;2023-01-15T07:54:28;5.30;99.90
49503;DHT22;35409;48.776;9.204;2023-01-15T07:56:54;5.20;99.90
49503;DHT22;35409;48.776;9.204;2023-01-15T07:59:21;5.20;99.90
49503;DHT22;35409;48.776;9.204;2023-01-15T08:01:47;5.10;99.90
49503;DHT22;35409;48.776;9.204;2023-01-15T08:04:12;5.10;99.90
49503;DHT22;35409;48.776;9.204;2023-01-15T08:06:38;5.20;99.90
49503;DHT22;35409;48.776;9.204;2023-01-15T08:09:04;5.20;99.90
49503;DHT22;35409;48.776;9.204;2023-01-15T08:11:31;5.20;99.90
49503;DHT22;35409;48.776;9.204;2023-01-15T08:14:16;5.20;99.90
49503;DHT22;35409;48.776;9.204;2023-01-15T08:17:00;5.10;99.90
49503;DHT22;35409;48.776;9.204;2023-01-15T08:19:25;5.20;99.90
49503;DHT22;35409;48.776;9.204;2023-01-15T08:21:54;5.20;99.90
49503;DHT22;35409;48.776;9.204;2023-01-15T08:24:20;5.20;99.90
49503;DHT22;35409;48.776;9.204;2023-01-15T08:26:45;5.10;99.90
49503;DHT22;35409;48.776;9.204;2023-01-15T08:29:11;5.10;99.90
49503;DHT22;35409;48.776;9.204;2023-01-15T08:31:36;5.10;99.90
49503;DHT22;35409;48.776;9.204;2023-01-15T08:34:04;5.20;99.90
49503;DHT22;35409;48.776;9.204;2023-01-15T08:36:30;5.40;99.90
49503;DHT22;35409;48.776;9.204;2023-01-15T08:38:55;5.50;99.90
49503;DHT22;35409;48.776;9.204;2023-01-15T08:41:21;5.50;99.90
49503;DHT22;35409;48.776;9.204;2023-01-15T08:43:47;5.40;99.90
49503;DHT22;35409;48.776;9.204;2023-01-15T08:46:12;5.30;99.90
49503;DHT22;35409;48.776;9.204;2023-01-15T08:48:38;5.40;99.90
49503;DHT22;35409;48.776;9.204;2023-01-15T08:51:08;5.30;99.90
49503;DHT22;35409;48.776;9.204;2023-01-15T08:53:34;5.30;99.90
49503;DHT22;35409;48.776;9.204;2023-01-15T08:56:00;5.30;99.90
49503;DHT22;35409;48.776;9.204;2023-01-15T08:58:28;5.20;99.90
49503;DHT22;35409;48.776;9.204;2023-01-15T09:00:54;5.30;99.90
49503;DHT22;35409;48.776;9.204;2023-01-15T09:03:20;5.20;99.90
49503;DHT22;35409;48.776;9.204;2023-01-15T09:05:46;5.30;99.90
49503;DHT22;35409;48.776;9.204;2023-01-15T09:08:11;5.30;99.90
49503;DHT22;35409;48.776;9.204;2023-01-15T09:10:37;5.20;99.90
49503;DHT22;35409;48.776;9.204;2023-01-15T09:13:04;5.20;99.90
49503;DHT22;35409;48.776;9.204;2023-01-15T09:15:32;5.20;99.90
49503;DHT22;35409;48.776;9.204;2023-01-15T09:17:58;5.20;99.90
49503;DHT22;35409;48.776;9.204;2023-01-15T09:20:23;5.20;99.90
49503;DHT22;35409;48.776;9.204;2023-01-15T09:22:50;5.20;99.90
49503;DHT22;35409;48.776;9.204;2023-01-15T09:25:16;5.20;99.90
49503;DHT22;35409;48.776;9.204;2023-01-15T09:27:44;5.20;99.90
49503;DHT22;35409;48.776;9.204;2023-01-15T09:30:15;5.20;99.90
49503;DHT22;35409;48.776;9.204;2023-01-15T09:32:41;5.20;99.90
49503;DHT22;35409;48.776;9.204;2023-01-15T09:35:07;5.30;99.90
49503;DHT22;35409;48.776;9.204;2023-01-15T09:37:33;5.30;99.90
49503;DHT22;35409;48.776;9.204;2023-01-15T09:39:58;5.30;99.90
49503;DHT22;35409;48.776;9.204;2023-01-15T09:45:23;5.20;99.90
49503;DHT22;35409;48.776;9.204;2023-01-15T09:55:48;5.40;99.90
49503;DHT22;35409;48.776;9.204;2023-01-15T09:58:17;5.40;99.90
49503;DHT22;35409;48.776;9.204;2023-01-15T10:00:51;5.40;99.90
49503;DHT22;35409;48.776;9.204;2023-01-15T10:08:47;5.40;99.90
49503;DHT22;35409;48.776;9.204;2023-01-15T10:13:55;5.30;99.90
49503;DHT22;35409;48.776;9.204;2023-01-15T10:16:26;5.30;99.90
49503;DHT22;35409;48.776;9.204;2023-01-15T10:18:54;5.20;99.90
49503;DHT22;35409;48.776;9.204;2023-01-15T10:26:50;5.10;99.90
49503;DHT22;35409;48.776;9.204;2023-01-15T10:37:50;5.00;99.90
49503;DHT22;35409;48.776;9.204;2023-01-15T10:40:35;5.00;99.90
49503;DHT22;35409;48.776;9.204;2023-01-15T10:43:24;4.90;99.90
49503;DHT22;35409;48.776;9.204;2023-01-15T10:45:57;4.90;99.90
49503;DHT22;35409;48.776;9.204;2023-01-15T10:51:37;5.00;99.90
49503;DHT22;35409;48.776;9.204;2023-01-15T10:54:32;5.00;99.90
49503;DHT22;35409;48.776;9.204;2023-01-15T10:57:06;5.00;99.90
49503;DHT22;35409;48.776;9.204;2023-01-15T11:05:37;4.80;99.90
49503;DHT22;35409;48.776;9.204;2023-01-15T11:08:07;4.60;99.90
49503;DHT22;35409;48.776;9.204;2023-01-15T11:10:37;4.70;99.90
49503;DHT22;35409;48.776;9.204;2023-01-15T11:13:20;4.50;99.90
49503;DHT22;35409;48.776;9.204;2023-01-15T11:16:04;4.50;99.90
49503;DHT22;35409;48.776;9.204;2023-01-15T11:18:49;4.40;99.90
49503;DHT22;35409;48.776;9.204;2023-01-15T11:21:39;4.40;99.90
49503;DHT22;35409;48.776;9.204;2023-01-15T11:24:14;4.30;99.90
49503;DHT22;35409;48.776;9.204;2023-01-15T11:26:40;4.30;99.90
49503;DHT22;35409;48.776;9.204;2023-01-15T11:29:14;4.20;99.90
49503;DHT22;35409;48.776;9.204;2023-01-15T11:31:40;4.20;99.90
49503;DHT22;35409;48.776;9.204;2023-01-15T11:34:19;4.20;99.90
49503;DHT22;35409;48.776;9.204;2023-01-15T11:36:45;4.20;99.90
49503;DHT22;35409;48.776;9.204;2023-01-15T11:39:24;4.10;99.90
49503;DHT22;35409;48.776;9.204;2023-01-15T11:41:58;4.10;99.90
49503;DHT22;35409;48.776;9.204;2023-01-15T11:44:50;4.10;99.90
49503;DHT22;35409;48.776;9.204;2023-01-15T11:47:34;4.10;99.90
49503;DHT22;35409;48.776;9.204;2023-01-15T11:50:19;4.10;99.90
49503;DHT22;35409;48.776;9.204;2023-01-15T11:53:07;4.10;99.90
49503;DHT22;35409;48.776;9.204;2023-01-15T11:55:33;4.00;99.90
49503;DHT22;35409;48.776;9.204;2023-01-15T11:58:00;4.00;99.90
49503;DHT22;35409;48.776;9.204;2023-01-15T12:02:54;3.90;99.90
49503;DHT22;35409;48.776;9.204;2023-01-15T12:05:34;4.00;99.90
49503;DHT22;35409;48.776;9.204;2023-01-15T12:08:25;4.00;99.90
49503;DHT22;35409;48.776;9.204;2023-01-15T12:16:28;4.10;99.90
49503;DHT22;35409;48.776;9.204;2023-01-15T12:18:58;4.10;99.90
49503;DHT22;35409;48.776;9.204;2023-01-15T12:24:03;4.30;99.90
49503;DHT22;35409;48.776;9.204;2023-01-15T12:29:22;4.20;99.90
49503;DHT22;35409;48.776;9.204;2023-01-15T12:31:58;4.20;99.90
49503;DHT22;35409;48.776;9.204;2023-01-15T12:37:16;4.20;99.90
49503;DHT22;35409;48.776;9.204;2023-01-15T12:39:50;4.30;99.90
49503;DHT22;35409;48.776;9.204;2023-01-15T12:42:19;4.30;99.90
49503;DHT22;35409;48.776;9.204;2023-01-15T12:45:24;4.40;99.90
49503;DHT22;35409;48.776;9.204;2023-01-15T12:47:56;4.40;99.90
49503;DHT22;35409;48.776;9.204;2023-01-15T12:50:46;4.40;99.90
49503;DHT22;35409;48.776;9.204;2023-01-15T12:58:41;4.40;99.90
49503;DHT22;35409;48.776;9.204;2023-01-15T13:04:13;4.50;99.90
49503;DHT22;35409;48.776;9.204;2023-01-15T13:06:46;4.60;99.90
49503;DHT22;35409;48.776;9.204;2023-01-15T13:11:44;4.60;99.90
49503;DHT22;35409;48.776;9.204;2023-01-15T13:14:14;4.70;99.90
49503;DHT22;35409;48.776;9.204;2023-01-15T13:17:02;4.60;99.90
49503;DHT22;35409;48.776;9.204;2023-01-15T13:22:23;4.80;99.90
49503;DHT22;35409;48.776;9.204;2023-01-15T13:33:49;5.00;99.90
49503;DHT22;35409;48.776;9.204;2023-01-15T13:36:17;5.00;99.90
49503;DHT22;35409;48.776;9.204;2023-01-15T13:38:48;5.00;99.90
49503;DHT22;35409;48.776;9.204;2023-01-15T13:41:23;5.00;99.90
49503;DHT22;35409;48.776;9.204;2023-01-15T13:44:17;5.10;99.90
49503;DHT22;35409;48.776;9.204;2023-01-15T13:46:45;5.00;99.90
49503;DHT22;35409;48.776;9.204;2023-01-15T13:49:22;5.00;99.90
49503;DHT22;35409;48.776;9.204;2023-01-15T13:51:49;5.00;99.90
49503;DHT22;35409;48.776;9.204;2023-01-15T13:54:18;4.90;99.90
49503;DHT22;35409;48.776;9.204;2023-01-15T13:56:47;4.80;99.90
49503;DHT22;35409;48.776;9.204;2023-01-15T13:59:41;4.80;99.90
49503;DHT22;35409;48.776;9.204;2023-01-15T14:02:28;4.90;99.90
49503;DHT22;35409;48.776;9.204;2023-01-15T14:04:55;4.80;99.90
49503;DHT22;35409;48.776;9.204;2023-01-15T14:07:31;4.90;99.90
49503;DHT22;35409;48.776;9.204;2023-01-15T14:10:49;4.90;99.90
49503;DHT22;35409;48.776;9.204;2023-01-15T14:15:44;5.00;99.90
49503;DHT22;35409;48.776;9.204;2023-01-15T14:34:11;5.10;99.90
49503;DHT22;35409;48.776;9.204;2023-01-15T14:37:06;5.20;99.90
49503;DHT22;35409;48.776;9.204;2023-01-15T14:42:22;5.10;99.90
49503;DHT22;35409;48.776;9.204;2023-01-15T14:45:24;5.00;99.90
49503;DHT22;35409;48.776;9.204;2023-01-15T14:47:59;5.10;99.90
49503;DHT22;35409;48.776;9.204;2023-01-15T14:56:31;4.90;99.90
49503;DHT22;35409;48.776;9.204;2023-01-15T14:59:22;4.80;99.90
49503;DHT22;35409;48.776;9.204;2023-01-15T15:02:00;4.80;99.90
49503;DHT22;35409;48.776;9.204;2023-01-15T15:07:04;4.80;99.90
49503;DHT22;35409;48.776;9.204;2023-01-15T15:09:46;4.90;99.90
49503;DHT22;35409;48.776;9.204;2023-01-15T15:17:37;4.90;99.90
49503;DHT22;35409;48.776;9.204;2023-01-15T15:20:18;4.90;99.90
49503;DHT22;35409;48.776;9.204;2023-01-15T15:22:47;4.90;99.90
49503;DHT22;35409;48.776;9.204;2023-01-15T15:25:21;4.80;99.90
49503;DHT22;35409;48.776;9.204;2023-01-15T15:27:47;4.90;99.90
49503;DHT22;35409;48.776;9.204;2023-01-15T15:30:13;4.80;99.90
49503;DHT22;35409;48.776;9.204;2023-01-15T15:32:42;4.90;99.90
49503;DHT22;35409;48.776;9.204;2023-01-15T15:35:25;4.80;99.90
49503;DHT22;35409;48.776;9.204;2023-01-15T15:37:52;4.80;99.90
49503;DHT22;35409;48.776;9.204;2023-01-15T15:40:20;4.70;99.90
49503;DHT22;35409;48.776;9.204;2023-01-15T15:42:53;4.60;99.90
49503;DHT22;35409;48.776;9.204;2023-01-15T15:45:53;4.60;99.90
49503;DHT22;35409;48.776;9.204;2023-01-15T15:48:38;4.50;99.90
49503;DHT22;35409;48.776;9.204;2023-01-15T15:51:30;4.40;99.90
49503;DHT22;35409;48.776;9.204;2023-01-15T15:54:25;4.40;99.90
49503;DHT22;35409;48.776;9.204;2023-01-15T15:57:01;4.30;99.90
49503;DHT22;35409;48.776;9.204;2023-01-15T15:59:46;4.30;99.90
49503;DHT22;35409;48.776;9.204;2023-01-15T16:02:16;4.20;99.90
49503;DHT22;35409;48.776;9.204;2023-01-15T16:07:43;4.20;99.90
49503;DHT22;35409;48.776;9.204;2023-01-15T16:10:52;4.20;99.90
49503;DHT22;35409;48.776;9.204;2023-01-15T16:13:02;4.20;99.90
49503;DHT22;35409;48.776;9.204;2023-01-15T16:15:32;4.20;99.90
49503;DHT22;35409;48.776;9.204;2023-01-15T16:17:59;4.10;99.90
49503;DHT22;35409;48.776;9.204;2023-01-15T16:20:26;4.00;99.90
49503;DHT22;35409;48.776;9.204;2023-01-15T16:22:59;3.90;99.90
49503;DHT22;35409;48.776;9.204;2023-01-15T16:25:40;4.00;99.90
49503;DHT22;35409;48.776;9.204;2023-01-15T16:28:23;3.90;99.90
49503;DHT22;35409;48.776;9.204;2023-01-15T16:30:57;3.90;99.90
49503;DHT22;35409;48.776;9.204;2023-01-15T16:33:24;3.80;99.90
49503;DHT22;35409;48.776;9.204;2023-01-15T16:35:56;3.70;99.90
49503;DHT22;35409;48.776;9.204;2023-01-15T16:38:23;3.70;99.90
49503;DHT22;35409;48.776;9.204;2023-01-15T16:40:49;3.60;99.90
49503;DHT22;35409;48.776;9.204;2023-01-15T16:43:18;3.60;99.90
49503;DHT22;35409;48.776;9.204;2023-01-15T16:46:02;3.40;99.90
49503;DHT22;35409;48.776;9.204;2023-01-15T16:48:36;3.30;99.90
49503;DHT22;35409;48.776;9.204;2023-01-15T16:53:51;3.30;99.90
49503;DHT22;35409;48.776;9.204;2023-01-15T17:02:14;3.50;99.90
49503;DHT22;35409;48.776;9.204;2023-01-15T17:04:40;3.50;99.90
49503;DHT22;35409;48.776;9.204;2023-01-15T17:07:15;3.40;99.90
49503;DHT22;35409;48.776;9.204;2023-01-15T17:09:46;3.30;99.90
49503;DHT22;35409;48.776;9.204;2023-01-15T17:12:39;3.20;99.90
49503;DHT22;35409;48.776;9.204;2023-01-15T17:17:45;3.10;99.90
49503;DHT22;35409;48.776;9.204;2023-01-15T17:20:13;3.00;99.90
49503;DHT22;35409;48.776;9.204;2023-01-15T17:22:41;2.90;99.90
49503;DHT22;35409;48.776;9.204;2023-01-15T17:25:32;2.90;99.90
49503;DHT22;35409;48.776;9.204;2023-01-15T17:28:00;2.80;99.90
49503;DHT22;35409;48.776;9.204;2023-01-15T17:30:27;2.80;99.90
49503;DHT22;35409;48.776;9.204;2023-01-15T17:32:58;2.80;99.90
49503;DHT22;35409;48.776;9.204;2023-01-15T17:35:29;2.80;99.90
49503;DHT22;35409;48.776;9.204;2023-01-15T17:37:55;2.90;99.90
49503;DHT22;35409;48.776;9.204;2023-01-15T17:40:21;3.00;99.90
49503;DHT22;35409;48.776;9.204;2023-01-15T17:42:47;3.00;99.90
49503;DHT22;35409;48.776;9.204;2023-01-15T17:45:21;3.00;99.90
49503;DHT22;35409;48.776;9.204;2023-01-15T17:47:47;3.00;99.90
49503;DHT22;35409;48.776;9.204;2023-01-15T17:50:13;3.00;99.90
49503;DHT22;35409;48.776;9.204;2023-01-15T17:52:39;2.90;99.90
49503;DHT22;35409;48.776;9.204;2023-01-15T17:55:06;2.90;99.90
49503;DHT22;35409;48.776;9.204;2023-01-15T17:57:50;2.80;99.90
49503;DHT22;35409;48.776;9.204;2023-01-15T18:00:34;2.70;99.90
49503;DHT22;35409;48.776;9.204;2023-01-15T18:03:21;2.60;99.90
49503;DHT22;35409;48.776;9.204;2023-01-15T18:06:08;2.50;99.90
49503;DHT22;35409;48.776;9.204;2023-01-15T18:08:36;2.50;99.90
49503;DHT22;35409;48.776;9.204;2023-01-15T18:11:02;2.40;99.90
49503;DHT22;35409;48.776;9.204;2023-01-15T18:13:28;2.40;99.90
49503;DHT22;35409;48.776;9.204;2023-01-15T18:15:53;2.40;99.90
49503;DHT22;35409;48.776;9.204;2023-01-15T18:18:19;2.40;99.90
49503;DHT22;35409;48.776;9.204;2023-01-15T18:20:45;2.50;99.90
49503;DHT22;35409;48.776;9.204;2023-01-15T18:23:11;2.60;99.90
49503;DHT22;35409;48.776;9.204;2023-01-15T18:25:37;2.60;99.90
49503;DHT22;35409;48.776;9.204;2023-01-15T18:28:12;2.60;99.90
49503;DHT22;35409;48.776;9.204;2023-01-15T18:30:38;2.70;99.90
49503;DHT22;35409;48.776;9.204;2023-01-15T18:33:04;2.70;99.90
49503;DHT22;35409;48.776;9.204;2023-01-15T18:35:30;2.60;99.90
49503;DHT22;35409;48.776;9.204;2023-01-15T18:37:56;2.60;99.90
49503;DHT22;35409;48.776;9.204;2023-01-15T18:40:22;2.50;99.90
49503;DHT22;35409;48.776;9.204;2023-01-15T18:43:00;2.60;99.90
49503;DHT22;35409;48.776;9.204;2023-01-15T18:45:47;2.70;99.90
49503;DHT22;35409;48.776;9.204;2023-01-15T18:48:32;2.80;99.90
49503;DHT22;35409;48.776;9.204;2023-01-15T18:51:05;2.80;99.90
49503;DHT22;35409;48.776;9.204;2023-01-15T18:53:31;3.00;99.90
49503;DHT22;35409;48.776;9.204;2023-01-15T18:56:04;3.10;99.90
49503;DHT22;35409;48.776;9.204;2023-01-15T18:58:30;3.20;99.90
49503;DHT22;35409;48.776;9.204;2023-01-15T19:00:55;3.30;99.90
49503;DHT22;35409;48.776;9.204;2023-01-15T19:03:21;3.40;99.90
49503;DHT22;35409;48.776;9.204;2023-01-15T19:05:47;3.50;99.90
49503;DHT22;35409;48.776;9.204;2023-01-15T19:08:12;3.50;99.90
49503;DHT22;35409;48.776;9.204;2023-01-15T19:10:39;3.50;99.90
49503;DHT22;35409;48.776;9.204;2023-01-15T19:13:04;3.60;99.90
49503;DHT22;35409;48.776;9.204;2023-01-15T19:15:30;3.70;99.90
49503;DHT22;35409;48.776;9.204;2023-01-15T19:18:14;3.70;99.90
49503;DHT22;35409;48.776;9.204;2023-01-15T19:20:58;3.80;99.90
49503;DHT22;35409;48.776;9.204;2023-01-15T19:23:24;3.80;99.90
49503;DHT22;35409;48.776;9.204;2023-01-15T19:25:49;3.80;99.90
49503;DHT22;35409;48.776;9.204;2023-01-15T19:28:18;3.80;99.90
49503;DHT22;35409;48.776;9.204;2023-01-15T19:30:46;3.80;99.90
49503;DHT22;35409;48.776;9.204;2023-01-15T19:33:31;3.80;99.90
49503;DHT22;35409;48.776;9.204;2023-01-15T19:35:57;3.90;99.90
49503;DHT22;35409;48.776;9.204;2023-01-15T19:38:22;4.00;99.90
49503;DHT22;35409;48.776;9.204;2023-01-15T19:40:48;3.90;99.90
49503;DHT22;35409;48.776;9.204;2023-01-15T19:43:15;3.90;99.90
49503;DHT22;35409;48.776;9.204;2023-01-15T19:46:00;4.00;99.90
49503;DHT22;35409;48.776;9.204;2023-01-15T19:48:44;4.00;99.90
49503;DHT22;35409;48.776;9.204;2023-01-15T19:51:28;3.90;99.90
49503;DHT22;35409;48.776;9.204;2023-01-15T19:54:13;3.80;99.90
49503;DHT22;35409;48.776;9.204;2023-01-15T19:56:39;3.80;99.90
49503;DHT22;35409;48.776;9.204;2023-01-15T19:59:05;3.80;99.90
49503;DHT22;35409;48.776;9.204;2023-01-15T20:01:31;3.80;99.90
49503;DHT22;35409;48.776;9.204;2023-01-15T20:03:57;3.70;99.90
49503;DHT22;35409;48.776;9.204;2023-01-15T20:06:22;3.70;99.90
49503;DHT22;35409;48.776;9.204;2023-01-15T20:08:48;3.80;99.90
49503;DHT22;35409;48.776;9.204;2023-01-15T20:11:14;3.80;99.90
49503;DHT22;35409;48.776;9.204;2023-01-15T20:13:40;3.80;99.90
49503;DHT22;35409;48.776;9.204;2023-01-15T20:16:17;3.80;99.90
49503;DHT22;35409;48.776;9.204;2023-01-15T20:18:44;3.80;99.90
49503;DHT22;35409;48.776;9.204;2023-01-15T20:21:12;3.90;99.90
49503;DHT22;35409;48.776;9.204;2023-01-15T20:23:40;3.90;99.90
49503;DHT22;35409;48.776;9.204;2023-01-15T20:26:09;3.80;99.90
49503;DHT22;35409;48.776;9.204;2023-01-15T20:28:36;3.80;99.90
49503;DHT22;35409;48.776;9.204;2023-01-15T20:31:02;3.80;99.90
49503;DHT22;35409;48.776;9.204;2023-01-15T20:33:28;3.80;99.90
49503;DHT22;35409;48.776;9.204;2023-01-15T20:35:54;3.70;99.90
49503;DHT22;35409;48.776;9.204;2023-01-15T20:38:21;3.70;99.90
49503;DHT22;35409;48.776;9.204;2023-01-15T20:40:48;3.70;99.90
49503;DHT22;35409;48.776;9.204;2023-01-15T20:43:16;3.60;99.90
49503;DHT22;35409;48.776;9.204;2023-01-15T20:46:20;3.60;99.90
49503;DHT22;35409;48.776;9.204;2023-01-15T20:48:46;3.50;99.90
49503;DHT22;35409;48.776;9.204;2023-01-15T20:51:30;3.40;99.90
49503;DHT22;35409;48.776;9.204;2023-01-15T20:53:56;3.40;99.90
49503;DHT22;35409;48.776;9.204;2023-01-15T20:56:23;3.40;99.90
49503;DHT22;35409;48.776;9.204;2023-01-15T20:58:48;3.40;99.90
49503;DHT22;35409;48.776;9.204;2023-01-15T21:01:15;3.30;99.90
49503;DHT22;35409;48.776;9.204;2023-01-15T21:03:41;3.20;99.90
49503;DHT22;35409;48.776;9.204;2023-01-15T21:06:07;3.10;99.90
49503;DHT22;35409;48.776;9.204;2023-01-15T21:08:33;3.10;99.90
49503;DHT22;35409;48.776;9.204;2023-01-15T21:11:00;3.00;99.90
49503;DHT22;35409;48.776;9.204;2023-01-15T21:13:25;3.00;99.90
49503;DHT22;35409;48.776;9.204;2023-01-15T21:15:59;3.00;99.90
49503;DHT22;35409;48.776;9.204;2023-01-15T21:18:26;2.90;99.90
49503;DHT22;35409;48.776;9.204;2023-01-15T21:20:52;2.80;99.90
49503;DHT22;35409;48.776;9.204;2023-01-15T21:23:18;2.80;99.90
49503;DHT22;35409;48.776;9.204;2023-01-15T21:25:44;2.70;99.90
49503;DHT22;35409;48.776;9.204;2023-01-15T21:28:09;2.60;99.90
49503;DHT22;35409;48.776;9.204;2023-01-15T21:30:35;2.60;99.90
49503;DHT22;35409;48.776;9.204;2023-01-15T21:33:00;2.50;99.90
49503;DHT22;35409;48.776;9.204;2023-01-15T21:35:26;2.40;99.90
49503;DHT22;35409;48.776;9.204;2023-01-15T21:37:52;2.40;99.90
49503;DHT22;35409;48.776;9.204;2023-01-15T21:40:18;2.30;99.90
49503;DHT22;35409;48.776;9.204;2023-01-15T21:42:43;2.40;99.90
49503;DHT22;35409;48.776;9.204;2023-01-15T21:45:28;2.40;99.90
49503;DHT22;35409;48.776;9.204;2023-01-15T21:47:53;2.40;99.90
49503;DHT22;35409;48.776;9.204;2023-01-15T21:50:19;2.40;99.90
49503;DHT22;35409;48.776;9.204;2023-01-15T21:52:45;2.50;99.90
49503;DHT22;35409;48.776;9.204;2023-01-15T21:55:12;2.50;99.90
49503;DHT22;35409;48.776;9.204;2023-01-15T21:57:38;2.50;99.90
49503;DHT22;35409;48.776;9.204;2023-01-15T22:00:05;2.50;99.90